Time;durP1;ratioP1;P1;durP2;ratioP2;P2;SDS_P1;SDS_P2;PMS_P1;PMS_P2;Temp;Humidity;BMP_temperature;BMP_pressure;BME280_temperature;BME280_humidity;BME280_pressure;Samples;Min_cycle;Max_cycle;Signal;HPM_P1;HPM_P2
2024/02/12 00:00:45;;;;;;;33.40;21.70;;;8.10;95.60;;;;;;5005704;28;20041;-84
2024/02/12 00:03:12;;;;;;;28.25;19.42;;;8.10;95.70;;;;;;5006859;28;20422;-85
2024/02/12 00:05:38;;;;;;;34.17;23.73;;;8.20;95.60;;;;;;4994488;28;20041;-84
2024/02/12 00:08:07;;;;;;;30.05;21.90;;;8.10;95.70;;;;;;4993788;28;20068;-86
2024/02/12 00:10:34;;;;;;;31.60;22.42;;;8.20;95.70;;;;;;4994845;28;20344;-85
2024/02/12 00:12:59;;;;;;;35.22;22.83;;;8.20;95.70;;;;;;4994117;28;20021;-86
2024/02/12 00:15:27;;;;;;;32.10;21.95;;;8.20;95.70;;;;;;4999306;28;20407;-86
2024/02/12 00:17:52;;;;;;;33.50;21.70;;;8.20;95.60;;;;;;4993249;28;20033;-85
2024/02/12 00:20:18;;;;;;;31.95;19.90;;;8.20;95.70;;;;;;4991153;28;20050;-85
2024/02/12 00:22:44;;;;;;;33.13;21.67;;;8.30;95.70;;;;;;4996882;28;20097;-87
2024/02/12 00:25:14;;;;;;;32.35;21.77;;;8.30;95.70;;;;;;5009567;28;20307;-85
2024/02/12 00:27:40;;;;;;;34.10;21.75;;;8.30;95.70;;;;;;4996846;28;20025;-84
2024/02/12 00:30:08;;;;;;;33.67;21.63;;;8.40;95.70;;;;;;4991685;28;20030;-85
2024/02/12 00:32:36;;;;;;;33.47;21.83;;;8.40;95.60;;;;;;4992121;28;20025;-85
2024/02/12 00:35:04;;;;;;;33.35;22.85;;;8.40;95.60;;;;;;4994968;28;20160;-83
2024/02/12 00:37:31;;;;;;;31.73;22.45;;;8.40;95.60;;;;;;4995406;28;20050;-83
2024/02/12 00:40:00;;;;;;;36.55;24.10;;;8.30;95.70;;;;;;4996260;28;20034;-84
2024/02/12 00:42:26;;;;;;;32.47;20.88;;;8.40;95.80;;;;;;4993285;28;20141;-87
2024/02/12 00:44:52;;;;;;;34.65;22.10;;;8.40;95.80;;;;;;4997071;28;20121;-87
2024/02/12 00:47:18;;;;;;;34.55;21.27;;;8.40;95.80;;;;;;4993488;28;20037;-87
2024/02/12 00:49:43;;;;;;;31.25;20.83;;;8.40;95.80;;;;;;4991009;28;20038;-85
2024/02/12 00:52:14;;;;;;;35.13;22.40;;;8.40;95.90;;;;;;4990817;28;20498;-86
2024/02/12 00:54:40;;;;;;;33.05;21.10;;;8.40;96.00;;;;;;4995415;28;20045;-86
2024/02/12 00:57:09;;;;;;;32.13;22.02;;;8.50;96.00;;;;;;4992524;28;20040;-84
2024/02/12 00:59:38;;;;;;;34.15;20.83;;;8.50;96.10;;;;;;4998271;28;20041;-84
2024/02/12 01:02:05;;;;;;;34.17;20.85;;;8.50;96.10;;;;;;4990662;28;20340;-84
2024/02/12 01:04:31;;;;;;;34.05;20.20;;;8.50;96.20;;;;;;4996396;28;20060;-85
2024/02/12 01:06:59;;;;;;;28.17;19.05;;;8.50;96.10;;;;;;4994482;28;20057;-86
2024/02/12 01:09:26;;;;;;;30.17;18.67;;;8.50;96.10;;;;;;4996529;28;20029;-86
2024/02/12 01:11:53;;;;;;;33.30;17.88;;;8.50;96.00;;;;;;4994832;28;20026;-86
2024/02/12 01:14:19;;;;;;;27.08;17.10;;;8.50;96.10;;;;;;4993593;28;20041;-85
2024/02/12 01:16:45;;;;;;;26.45;17.38;;;8.50;96.10;;;;;;4992327;28;20057;-85
2024/02/12 01:19:11;;;;;;;27.88;17.17;;;8.50;96.00;;;;;;4989976;28;20026;-85
2024/02/12 01:21:37;;;;;;;29.67;17.60;;;8.50;96.00;;;;;;4997077;28;20298;-84
2024/02/12 01:24:04;;;;;;;35.25;18.73;;;8.50;96.10;;;;;;4995099;28;20034;-85
2024/02/12 01:26:34;;;;;;;31.23;19.50;;;8.50;96.10;;;;;;4992415;28;20134;-84
2024/02/12 01:29:01;;;;;;;31.30;18.55;;;8.50;96.10;;;;;;4989669;28;20125;-84
2024/02/12 01:31:28;;;;;;;29.00;18.92;;;8.50;96.20;;;;;;5002898;28;20480;-86
2024/02/12 01:33:53;;;;;;;28.67;18.73;;;8.50;96.20;;;;;;5002524;28;20026;-85
2024/02/12 01:36:19;;;;;;;26.85;18.48;;;8.50;96.20;;;;;;4997061;28;20108;-85
2024/02/12 01:38:45;;;;;;;29.80;19.48;;;8.50;96.30;;;;;;5000038;28;20391;-85
2024/02/12 01:41:11;;;;;;;29.70;18.88;;;8.50;96.30;;;;;;5000668;28;20025;-83
2024/02/12 01:43:40;;;;;;;27.65;18.23;;;8.50;96.40;;;;;;4995806;28;20030;-86
2024/02/12 01:46:06;;;;;;;32.00;18.77;;;8.50;96.40;;;;;;4996231;28;20521;-85
2024/02/12 01:48:32;;;;;;;30.50;18.98;;;8.50;96.40;;;;;;4991228;28;20109;-83
2024/02/12 01:51:21;;;;;;;31.77;18.63;;;8.50;96.50;;;;;;4997741;28;20091;-84
2024/02/12 01:53:48;;;;;;;28.75;18.38;;;8.50;96.50;;;;;;4992926;28;20418;-86
2024/02/12 01:56:13;;;;;;;28.83;20.27;;;8.50;96.60;;;;;;4995860;28;20006;-83
2024/02/12 01:58:41;;;;;;;29.58;18.92;;;8.50;96.60;;;;;;4997116;28;20040;-86
2024/02/12 02:01:07;;;;;;;24.30;17.85;;;8.50;96.60;;;;;;5003585;28;20034;-86
2024/02/12 02:03:33;;;;;;;27.42;18.75;;;8.50;96.50;;;;;;4993982;28;20528;-85
2024/02/12 02:06:00;;;;;;;27.15;17.55;;;8.50;96.60;;;;;;4998959;28;20065;-86
2024/02/12 02:08:34;;;;;;;24.38;17.08;;;8.50;96.50;;;;;;5000998;28;20032;-86
2024/02/12 02:11:00;;;;;;;24.67;15.50;;;8.50;96.40;;;;;;4993388;28;20489;-85
2024/02/12 02:13:28;;;;;;;26.25;16.02;;;8.40;96.40;;;;;;4993335;28;20126;-85
2024/02/12 02:15:53;;;;;;;24.30;15.43;;;8.40;96.30;;;;;;4989221;28;20113;-85
2024/02/12 02:18:20;;;;;;;23.77;16.30;;;8.30;96.30;;;;;;4997913;28;20143;-85
2024/02/12 02:20:46;;;;;;;26.88;17.45;;;8.30;96.30;;;;;;4999177;28;20433;-86
2024/02/12 02:23:12;;;;;;;27.25;18.05;;;8.20;96.30;;;;;;4998678;28;20106;-86
2024/02/12 02:25:40;;;;;;;28.05;16.55;;;8.20;96.40;;;;;;4997086;28;20224;-86
2024/02/12 02:28:05;;;;;;;27.38;16.75;;;8.10;96.40;;;;;;5000641;28;20010;-84
2024/02/12 02:30:31;;;;;;;27.30;17.88;;;8.10;96.50;;;;;;4995254;28;20037;-84
2024/02/12 02:32:57;;;;;;;28.80;17.40;;;8.10;96.60;;;;;;5000280;28;20295;-87
2024/02/12 02:35:23;;;;;;;26.23;17.05;;;8.10;96.60;;;;;;4990466;28;20141;-83
2024/02/12 02:37:49;;;;;;;27.00;15.27;;;8.10;96.70;;;;;;4994829;28;20061;-86
2024/02/12 02:40:15;;;;;;;25.88;17.60;;;8.00;96.80;;;;;;4986801;28;20026;-85
2024/02/12 02:42:40;;;;;;;26.40;16.02;;;8.10;96.90;;;;;;4997088;28;20029;-84
2024/02/12 02:45:07;;;;;;;30.60;15.63;;;8.10;97.00;;;;;;4998186;28;20049;-84
2024/02/12 02:47:32;;;;;;;26.67;15.20;;;8.10;97.00;;;;;;4997029;28;20109;-84
2024/02/12 02:49:58;;;;;;;24.88;14.85;;;8.10;96.90;;;;;;4998943;28;20176;-85
2024/02/12 02:52:24;;;;;;;25.85;15.13;;;8.10;96.90;;;;;;4995771;28;21176;-84
2024/02/12 02:54:50;;;;;;;30.88;14.57;;;8.10;96.90;;;;;;4987614;28;20049;-85
2024/02/12 02:57:16;;;;;;;28.45;13.77;;;8.10;96.80;;;;;;4994437;28;20033;-87
2024/02/12 02:59:42;;;;;;;23.42;13.68;;;8.00;96.80;;;;;;4997315;28;20040;-85
2024/02/12 03:02:11;;;;;;;24.27;13.48;;;8.00;96.90;;;;;;4996920;28;20014;-86
2024/02/12 03:04:38;;;;;;;24.90;13.45;;;7.90;96.80;;;;;;4996546;28;20096;-85
2024/02/12 03:07:06;;;;;;;25.02;12.45;;;7.90;96.80;;;;;;4998592;28;20076;-86
2024/02/12 03:09:36;;;;;;;28.63;12.90;;;7.90;96.90;;;;;;4992990;28;20089;-83
2024/02/12 03:12:02;;;;;;;25.08;12.18;;;7.90;97.00;;;;;;4999126;28;20030;-85
2024/02/12 03:14:28;;;;;;;23.13;11.15;;;7.90;97.00;;;;;;4987619;28;20430;-86
2024/02/12 03:16:55;;;;;;;21.80;11.63;;;7.90;97.00;;;;;;4991570;28;20031;-83
2024/02/12 03:19:21;;;;;;;21.92;10.40;;;8.00;96.90;;;;;;4991819;28;20483;-86
2024/02/12 03:21:49;;;;;;;21.67;10.07;;;8.00;96.70;;;;;;4998889;28;20057;-86
2024/02/12 03:24:15;;;;;;;24.25;9.68;;;7.90;96.60;;;;;;4991061;28;20045;-84
2024/02/12 03:26:42;;;;;;;25.48;10.20;;;7.90;96.60;;;;;;4998708;28;20076;-85
2024/02/12 03:29:07;;;;;;;19.35;8.45;;;7.80;96.50;;;;;;4993991;28;20030;-85
2024/02/12 03:31:33;;;;;;;18.85;10.05;;;7.80;96.50;;;;;;4996382;28;20025;-85
2024/02/12 03:33:59;;;;;;;24.73;8.20;;;7.80;96.50;;;;;;4994990;28;20399;-85
2024/02/12 03:36:25;;;;;;;20.40;8.63;;;7.80;96.40;;;;;;4995332;28;20357;-85
2024/02/12 03:38:52;;;;;;;18.77;8.35;;;7.70;96.40;;;;;;4997123;28;20022;-86
2024/02/12 03:41:23;;;;;;;17.77;8.57;;;7.70;96.30;;;;;;5004633;28;20026;-86
2024/02/12 03:43:52;;;;;;;23.48;9.18;;;7.70;96.30;;;;;;4999463;28;20018;-85
2024/02/12 03:46:28;;;;;;;21.38;8.93;;;7.60;96.30;;;;;;4995378;28;20030;-85
2024/02/12 03:59:51;;;;;;;20.23;7.07;;;7.60;96.00;;;;;;4995582;28;20052;-85
2024/02/12 04:02:17;;;;;;;21.73;7.45;;;7.50;96.10;;;;;;4991235;28;20285;-86
2024/02/12 04:04:42;;;;;;;18.63;7.60;;;7.50;96.10;;;;;;4996826;28;20121;-84
2024/02/12 04:07:08;;;;;;;22.23;8.05;;;7.50;96.10;;;;;;4996245;28;20104;-85
2024/02/12 04:09:38;;;;;;;23.20;7.78;;;7.40;96.10;;;;;;4994184;28;20084;-86
2024/02/12 04:12:11;;;;;;;20.05;7.13;;;7.40;96.30;;;;;;5000723;28;20423;-85
2024/02/12 04:14:43;;;;;;;22.92;6.80;;;7.50;96.10;;;;;;5012268;28;20033;-86
2024/02/12 04:17:09;;;;;;;18.88;7.45;;;7.40;96.10;;;;;;5001916;28;20242;-85
2024/02/12 04:19:36;;;;;;;19.60;6.80;;;7.40;96.20;;;;;;4999316;28;20036;-85
2024/02/12 04:22:04;;;;;;;18.75;6.90;;;7.40;96.20;;;;;;5002537;28;20394;-84
2024/02/12 04:24:34;;;;;;;18.20;7.05;;;7.30;96.10;;;;;;4996380;28;20115;-87
2024/02/12 04:27:03;;;;;;;24.50;7.18;;;7.30;96.10;;;;;;4995391;28;20175;-86
2024/02/12 04:29:29;;;;;;;19.35;7.20;;;7.30;96.10;;;;;;4995496;28;20069;-86
2024/02/12 04:31:56;;;;;;;18.08;6.80;;;7.20;96.10;;;;;;4996239;28;20022;-86
2024/02/12 04:34:22;;;;;;;18.77;6.70;;;7.20;96.10;;;;;;4991945;28;20050;-86
2024/02/12 04:36:49;;;;;;;18.23;7.43;;;7.20;96.10;;;;;;4990904;28;20049;-84
2024/02/12 04:39:16;;;;;;;17.75;6.07;;;7.20;96.20;;;;;;4994301;28;20037;-86
2024/02/12 04:41:42;;;;;;;19.02;6.38;;;7.10;96.10;;;;;;4994946;28;20717;-88
2024/02/12 04:44:08;;;;;;;16.75;5.97;;;7.10;96.10;;;;;;4994217;28;20046;-84
2024/02/12 04:46:37;;;;;;;14.68;6.07;;;7.10;96.20;;;;;;4993547;28;20030;-86
2024/02/12 04:49:06;;;;;;;18.65;6.40;;;7.00;96.10;;;;;;4996479;28;20034;-85
2024/02/12 04:51:32;;;;;;;19.45;6.68;;;7.00;96.20;;;;;;4991171;28;20065;-85
2024/02/12 04:53:58;;;;;;;22.85;7.35;;;7.00;96.30;;;;;;4995834;28;20034;-86
2024/02/12 04:56:24;;;;;;;19.17;5.40;;;7.00;96.30;;;;;;4996777;28;20030;-85
2024/02/12 04:58:50;;;;;;;17.30;5.88;;;6.90;96.20;;;;;;4990730;28;20033;-84
2024/02/12 05:01:16;;;;;;;18.50;6.82;;;6.90;96.30;;;;;;4993460;28;20433;-86
2024/02/12 05:03:42;;;;;;;16.92;5.60;;;6.80;96.30;;;;;;4996364;28;20019;-87
2024/02/12 05:06:08;;;;;;;16.00;5.13;;;6.80;96.40;;;;;;4999005;28;21356;-86
2024/02/12 05:08:34;;;;;;;20.13;6.10;;;6.80;96.40;;;;;;5000097;28;20109;-86
2024/02/12 05:11:00;;;;;;;18.58;6.25;;;6.80;96.40;;;;;;5001551;28;20037;-85
2024/02/12 05:13:25;;;;;;;15.32;5.65;;;6.80;96.50;;;;;;5002906;28;20033;-86
2024/02/12 05:15:52;;;;;;;21.27;5.95;;;6.70;96.50;;;;;;4996651;28;20394;-86
2024/02/12 05:23:56;;;;;;;20.65;5.25;;;6.70;96.60;;;;;;4996631;28;20041;-85
2024/02/12 05:26:22;;;;;;;17.10;4.68;;;6.70;96.50;;;;;;4999507;28;20386;-86
2024/02/12 05:28:47;;;;;;;18.38;5.85;;;6.60;96.50;;;;;;4997235;28;20037;-85
2024/02/12 05:31:13;;;;;;;16.98;5.32;;;6.60;96.50;;;;;;4997986;28;20762;-85
2024/02/12 05:33:38;;;;;;;16.17;5.75;;;6.60;96.50;;;;;;4995203;28;20026;-85
2024/02/12 05:36:05;;;;;;;15.30;5.75;;;6.60;96.40;;;;;;4994619;28;20045;-86
2024/02/12 05:38:31;;;;;;;16.33;5.30;;;6.60;96.40;;;;;;4996270;28;20019;-85
2024/02/12 05:40:57;;;;;;;20.23;5.53;;;6.60;96.40;;;;;;4998433;28;20042;-84
2024/02/12 05:43:22;;;;;;;17.02;6.10;;;6.50;96.30;;;;;;5015285;28;20484;-86
2024/02/12 05:45:48;;;;;;;21.55;5.57;;;6.50;96.50;;;;;;4996730;28;20045;-86
2024/02/12 05:48:14;;;;;;;23.25;5.32;;;6.50;96.40;;;;;;4999258;28;20569;-84
2024/02/12 05:50:40;;;;;;;16.33;5.00;;;6.40;96.30;;;;;;4995702;28;20086;-85
2024/02/12 05:53:08;;;;;;;16.80;5.43;;;6.50;96.30;;;;;;4994255;28;20362;-85
2024/02/12 05:55:39;;;;;;;15.57;5.10;;;6.40;96.30;;;;;;4996106;28;20046;-85
2024/02/12 05:58:05;;;;;;;15.45;4.65;;;6.30;96.40;;;;;;4997622;28;20026;-85
2024/02/12 06:00:31;;;;;;;11.60;5.00;;;6.30;96.40;;;;;;5000143;28;20042;-84
2024/02/12 06:02:57;;;;;;;17.85;4.57;;;6.30;96.50;;;;;;5010378;28;20036;-84
2024/02/12 06:05:22;;;;;;;16.98;5.20;;;6.20;96.50;;;;;;4996194;28;20219;-84
2024/02/12 06:07:48;;;;;;;17.98;5.20;;;6.20;96.60;;;;;;4999054;28;20025;-84
2024/02/12 06:10:17;;;;;;;17.58;5.40;;;6.20;96.60;;;;;;5000036;28;20113;-84
2024/02/12 06:12:42;;;;;;;15.27;5.35;;;6.20;96.60;;;;;;4994393;28;20633;-84
2024/02/12 06:15:09;;;;;;;16.73;4.65;;;6.10;96.60;;;;;;4993446;28;20034;-83
2024/02/12 06:17:35;;;;;;;14.73;4.40;;;6.10;96.60;;;;;;4998881;28;20084;-84
2024/02/12 06:20:05;;;;;;;18.67;4.40;;;6.20;96.60;;;;;;4994826;28;20126;-86
2024/02/12 06:22:31;;;;;;;11.98;4.20;;;6.20;96.60;;;;;;4999614;28;20511;-86
2024/02/12 06:24:57;;;;;;;14.77;4.80;;;6.10;96.60;;;;;;4992430;28;20341;-84
2024/02/12 06:27:23;;;;;;;15.43;4.55;;;6.10;96.60;;;;;;4999214;28;20026;-85
2024/02/12 06:29:49;;;;;;;14.18;4.60;;;6.10;96.50;;;;;;4998017;28;20897;-86
2024/02/12 06:32:15;;;;;;;15.98;4.75;;;6.00;96.60;;;;;;4996708;28;20044;-82
2024/02/12 06:34:47;;;;;;;15.02;5.05;;;6.00;96.70;;;;;;4994114;28;20061;-85
2024/02/12 06:37:13;;;;;;;15.07;5.15;;;6.00;96.70;;;;;;4995247;28;20451;-83
2024/02/12 06:39:39;;;;;;;14.93;4.57;;;5.90;96.80;;;;;;5000008;28;20072;-84
2024/02/12 06:42:06;;;;;;;16.13;6.00;;;5.90;96.80;;;;;;4997150;28;20038;-85
2024/02/12 06:44:35;;;;;;;13.20;4.90;;;5.90;96.90;;;;;;4995654;28;20112;-85
2024/02/12 06:47:00;;;;;;;15.02;4.15;;;5.90;96.90;;;;;;4995867;28;20018;-86
2024/02/12 06:49:26;;;;;;;17.55;4.97;;;5.90;97.00;;;;;;4993669;28;20351;-87
2024/02/12 06:51:52;;;;;;;14.10;5.30;;;6.00;97.00;;;;;;4997442;28;20556;-83
2024/02/12 06:54:20;;;;;;;24.20;6.32;;;6.00;97.00;;;;;;4996019;28;20334;-83
2024/02/12 06:56:45;;;;;;;16.85;5.80;;;6.00;97.00;;;;;;5000329;28;20080;-87
2024/02/12 06:59:11;;;;;;;17.35;6.15;;;6.00;97.00;;;;;;4997771;28;20018;-82
2024/02/12 07:01:38;;;;;;;14.48;4.85;;;6.00;97.10;;;;;;4997407;28;20144;-86
2024/02/12 07:04:04;;;;;;;15.70;5.53;;;6.10;97.10;;;;;;4996796;28;20037;-85
2024/02/12 07:06:31;;;;;;;17.20;5.80;;;6.10;97.10;;;;;;4991587;28;20109;-84
2024/02/12 07:08:57;;;;;;;16.35;5.25;;;6.10;97.10;;;;;;4991970;28;20038;-85
2024/02/12 07:11:23;;;;;;;19.08;5.35;;;6.10;97.20;;;;;;4996518;28;20120;-83
2024/02/12 07:13:49;;;;;;;22.92;5.63;;;6.10;97.20;;;;;;4993184;28;20025;-84
2024/02/12 07:16:18;;;;;;;19.75;6.45;;;6.10;97.20;;;;;;4992988;28;20248;-83
2024/02/12 07:18:47;;;;;;;18.17;4.88;;;6.10;97.20;;;;;;4996055;28;20089;-83
2024/02/12 07:21:14;;;;;;;17.73;4.90;;;6.10;97.20;;;;;;4999129;28;20022;-84
2024/02/12 07:23:40;;;;;;;16.30;4.65;;;6.10;97.20;;;;;;4990484;28;20071;-83
2024/02/12 07:26:07;;;;;;;16.30;4.95;;;6.10;97.30;;;;;;4992638;28;20029;-84
2024/02/12 07:28:33;;;;;;;14.50;4.75;;;6.20;97.30;;;;;;4991074;28;20434;-83
2024/02/12 07:30:58;;;;;;;15.77;5.88;;;6.10;97.30;;;;;;4990405;28;20522;-84
2024/02/12 07:33:24;;;;;;;19.27;5.70;;;6.10;97.30;;;;;;4999835;28;20034;-82
2024/02/12 07:35:50;;;;;;;22.65;5.82;;;6.10;97.50;;;;;;4993518;28;20089;-85
2024/02/12 07:38:15;;;;;;;14.68;4.65;;;6.20;97.50;;;;;;4999514;28;20041;-82
2024/02/12 07:40:41;;;;;;;18.08;5.82;;;6.20;97.50;;;;;;5009180;28;20101;-82
2024/02/12 07:43:06;;;;;;;19.35;4.90;;;6.20;97.50;;;;;;5007513;28;20038;-85
2024/02/12 07:45:36;;;;;;;20.20;5.65;;;6.20;97.60;;;;;;4993778;28;20046;-82
2024/02/12 07:48:02;;;;;;;16.13;4.95;;;6.20;97.60;;;;;;4996453;28;20033;-84
2024/02/12 07:50:27;;;;;;;15.20;5.05;;;6.30;97.60;;;;;;4991307;28;20030;-84
2024/02/12 07:52:53;;;;;;;17.52;5.25;;;6.30;97.60;;;;;;4996679;28;20025;-72
2024/02/12 07:55:22;;;;;;;18.23;5.07;;;6.30;97.60;;;;;;4988265;28;20061;-76
2024/02/12 07:57:48;;;;;;;21.50;5.80;;;6.40;97.60;;;;;;4992546;28;20029;-72
2024/02/12 08:00:15;;;;;;;26.63;5.32;;;6.40;97.60;;;;;;4992163;28;20100;-75
2024/02/12 08:02:44;;;;;;;15.98;5.53;;;6.40;97.60;;;;;;4993187;28;20533;-75
2024/02/12 08:05:10;;;;;;;17.65;5.20;;;6.40;97.60;;;;;;4998419;28;20390;-72
2024/02/12 08:07:36;;;;;;;16.88;5.28;;;6.40;97.60;;;;;;4994239;28;20311;-75
2024/02/12 08:10:03;;;;;;;13.45;5.28;;;6.50;97.60;;;;;;4993717;28;20110;-72
2024/02/12 08:12:30;;;;;;;18.83;5.13;;;6.50;97.60;;;;;;4992724;28;20394;-74
2024/02/12 08:14:56;;;;;;;16.42;4.78;;;6.60;97.60;;;;;;4996437;28;20077;-78
2024/02/12 08:17:24;;;;;;;14.90;5.13;;;6.60;97.60;;;;;;4996599;28;20049;-74
2024/02/12 08:19:50;;;;;;;18.98;5.70;;;6.60;97.50;;;;;;4992877;28;20501;-72
2024/02/12 08:22:16;;;;;;;12.35;4.32;;;6.60;97.50;;;;;;4988633;28;20486;-73
2024/02/12 08:24:42;;;;;;;14.15;5.05;;;6.70;97.50;;;;;;4996189;28;20104;-72
2024/02/12 08:27:08;;;;;;;23.27;6.07;;;6.70;97.50;;;;;;4993615;28;20079;-76
2024/02/12 08:29:34;;;;;;;15.98;6.03;;;6.80;97.50;;;;;;4990744;28;20038;-72
2024/02/12 08:31:59;;;;;;;14.40;4.88;;;6.80;97.50;;;;;;4990324;28;20112;-74
2024/02/12 08:34:25;;;;;;;17.38;5.20;;;6.80;97.50;;;;;;4996712;28;20482;-75
2024/02/12 08:36:52;;;;;;;15.98;5.20;;;6.90;97.50;;;;;;4991185;28;20315;-73
2024/02/12 08:39:20;;;;;;;18.40;5.88;;;7.00;97.50;;;;;;4989920;28;20515;-74
2024/02/12 08:41:46;;;;;;;13.30;5.53;;;7.00;97.40;;;;;;4993595;28;20105;-75
2024/02/12 08:44:12;;;;;;;13.77;5.40;;;7.00;97.40;;;;;;4990099;28;20124;-74
2024/02/12 08:46:37;;;;;;;15.93;5.55;;;7.00;97.30;;;;;;4978095;28;20176;-74
2024/02/12 08:49:04;;;;;;;11.15;4.57;;;7.10;97.40;;;;;;4994188;28;20120;-74
2024/02/12 08:51:31;;;;;;;18.70;5.95;;;7.10;97.30;;;;;;4993068;28;20045;-73
2024/02/12 08:53:56;;;;;;;16.63;5.82;;;7.10;97.30;;;;;;4982065;28;20092;-75
2024/02/12 08:56:22;;;;;;;18.90;5.93;;;7.30;97.30;;;;;;4989008;28;20026;-75
2024/02/12 08:58:48;;;;;;;18.85;5.82;;;7.40;97.40;;;;;;4991023;28;20500;-74
2024/02/12 09:01:17;;;;;;;12.65;5.20;;;7.50;97.10;;;;;;4979751;28;20449;-75
2024/02/12 09:03:44;;;;;;;15.07;5.22;;;7.60;97.00;;;;;;4995007;28;20064;-75
2024/02/12 09:06:14;;;;;;;12.68;4.57;;;7.60;96.80;;;;;;4988651;28;20044;-73
2024/02/12 09:08:44;;;;;;;15.70;5.22;;;7.60;96.60;;;;;;4991420;28;20075;-74
2024/02/12 09:11:11;;;;;;;11.88;5.22;;;7.70;96.60;;;;;;4990520;28;20417;-75
2024/02/12 09:13:42;;;;;;;16.52;5.50;;;7.90;96.50;;;;;;4978773;28;20040;-74
2024/02/12 09:16:08;;;;;;;16.25;5.50;;;8.10;96.40;;;;;;4985268;28;20054;-74
2024/02/12 09:18:38;;;;;;;17.35;5.00;;;8.20;95.90;;;;;;4989747;28;20088;-75
2024/02/12 09:21:04;;;;;;;12.73;4.75;;;8.30;95.30;;;;;;4990986;28;20097;-75
2024/02/12 09:23:30;;;;;;;16.25;5.57;;;8.40;95.10;;;;;;4984203;28;20038;-76
2024/02/12 09:25:56;;;;;;;13.02;4.63;;;8.60;94.60;;;;;;4984096;28;20061;-75
2024/02/12 09:28:27;;;;;;;14.30;4.65;;;8.70;93.80;;;;;;4993565;28;20018;-73
2024/02/12 09:30:57;;;;;;;11.57;4.82;;;8.80;93.90;;;;;;4979114;28;20051;-74
2024/02/12 09:33:23;;;;;;;13.20;4.53;;;8.90;93.00;;;;;;4990984;28;20473;-74
2024/02/12 09:35:49;;;;;;;14.65;4.30;;;8.90;92.60;;;;;;4993947;28;20349;-74
2024/02/12 09:38:15;;;;;;;13.90;4.15;;;9.10;92.50;;;;;;4987533;28;20029;-76
2024/02/12 09:40:42;;;;;;;11.00;4.25;;;9.10;92.10;;;;;;4987001;28;20398;-72
2024/02/12 09:43:11;;;;;;;11.02;3.78;;;9.40;92.00;;;;;;4975891;28;20125;-73
2024/02/12 09:45:44;;;;;;;17.10;4.85;;;9.40;91.50;;;;;;4994354;28;20046;-71
2024/02/12 09:48:14;;;;;;;12.70;4.72;;;9.30;91.50;;;;;;4990942;28;20627;-75
2024/02/12 09:50:44;;;;;;;12.02;4.50;;;9.50;91.00;;;;;;4988170;28;20065;-74
2024/02/12 09:53:20;;;;;;;14.35;4.85;;;9.50;91.00;;;;;;4995669;28;20022;-75
2024/02/12 09:55:47;;;;;;;12.30;4.45;;;9.60;90.60;;;;;;4993707;28;20031;-76
2024/02/12 09:58:15;;;;;;;12.38;4.50;;;9.50;90.70;;;;;;4999814;28;20014;-73
2024/02/12 10:00:45;;;;;;;12.43;4.22;;;9.70;91.20;;;;;;4996678;28;20036;-75
2024/02/12 10:03:14;;;;;;;12.40;3.75;;;9.70;90.20;;;;;;4986354;28;20182;-76
2024/02/12 10:05:41;;;;;;;17.27;4.65;;;9.80;90.00;;;;;;5000414;28;20084;-75
2024/02/12 10:08:20;;;;;;;14.40;4.85;;;9.90;89.50;;;;;;4998810;28;20324;-75
2024/02/12 10:10:45;;;;;;;12.55;3.88;;;9.90;89.70;;;;;;4999752;28;20359;-75
2024/02/12 10:13:11;;;;;;;14.13;4.50;;;10.10;89.60;;;;;;4995911;28;20037;-77
2024/02/12 10:15:39;;;;;;;13.68;4.32;;;10.20;89.30;;;;;;4996114;28;20120;-75
2024/02/12 10:18:05;;;;;;;10.75;3.75;;;10.20;88.70;;;;;;4992664;28;20018;-77
2024/02/12 10:20:31;;;;;;;10.07;3.53;;;10.10;88.20;;;;;;4997353;28;20030;-76
2024/02/12 10:22:59;;;;;;;12.00;3.95;;;10.00;89.20;;;;;;4994207;28;20227;-80
2024/02/12 10:25:25;;;;;;;15.38;4.07;;;9.90;88.90;;;;;;4992975;28;20053;-76
2024/02/12 10:27:51;;;;;;;11.30;3.80;;;10.10;89.50;;;;;;4986907;28;20840;-74
2024/02/12 10:30:17;;;;;;;10.18;3.20;;;10.10;89.50;;;;;;4993291;28;20129;-77
2024/02/12 10:32:49;;;;;;;14.70;5.15;;;10.20;89.40;;;;;;5008650;28;20014;-76
2024/02/12 10:35:15;;;;;;;15.35;4.55;;;10.20;89.20;;;;;;4995611;28;20038;-80
2024/02/12 10:37:44;;;;;;;10.38;4.13;;;10.00;88.50;;;;;;4981788;28;20018;-74
2024/02/12 10:40:15;;;;;;;13.38;4.32;;;10.10;89.50;;;;;;4993159;28;20030;-75
2024/02/12 10:42:49;;;;;;;10.38;4.68;;;10.30;88.90;;;;;;4994273;28;20491;-77
2024/02/12 10:45:17;;;;;;;12.75;4.05;;;10.20;88.10;;;;;;4994354;28;20395;-76
2024/02/12 10:47:42;;;;;;;10.73;4.07;;;10.20;88.60;;;;;;4994568;28;20486;-75
2024/02/12 10:50:13;;;;;;;10.82;3.55;;;10.30;87.70;;;;;;4995351;28;20082;-78
2024/02/12 10:52:43;;;;;;;10.32;3.35;;;10.40;87.10;;;;;;4993268;28;20507;-78
2024/02/12 10:55:10;;;;;;;11.90;4.00;;;10.10;87.10;;;;;;4997204;28;20036;-74
2024/02/12 10:57:40;;;;;;;12.43;4.63;;;10.30;86.60;;;;;;4993712;28;20117;-75
2024/02/12 11:00:06;;;;;;;13.05;4.35;;;10.40;87.00;;;;;;4995512;28;20362;-77
2024/02/12 11:02:45;;;;;;;10.90;4.30;;;10.60;85.60;;;;;;4999403;28;20439;-74
2024/02/12 11:05:17;;;;;;;10.45;4.30;;;10.80;84.50;;;;;;4985377;28;20026;-75
2024/02/12 11:07:45;;;;;;;8.95;3.95;;;10.80;83.80;;;;;;4997421;28;20026;-76
2024/02/12 11:10:18;;;;;;;9.00;3.75;;;10.60;83.80;;;;;;5003325;28;20034;-75
2024/02/12 11:12:46;;;;;;;12.55;3.60;;;10.90;83.10;;;;;;4994516;28;20030;-74
2024/02/12 11:15:19;;;;;;;12.40;3.83;;;10.90;83.50;;;;;;4997994;28;20022;-76
2024/02/12 11:17:45;;;;;;;11.15;3.92;;;10.70;82.30;;;;;;4997341;28;20442;-76
2024/02/12 11:20:18;;;;;;;12.38;3.60;;;10.60;82.30;;;;;;4993230;28;20033;-76
2024/02/12 11:22:45;;;;;;;11.40;3.28;;;10.60;81.40;;;;;;4996400;28;20080;-75
2024/02/12 11:25:20;;;;;;;7.93;2.47;;;10.60;81.10;;;;;;5004412;28;20042;-76
2024/02/12 11:27:53;;;;;;;11.23;2.90;;;10.50;81.00;;;;;;5002344;28;20052;-76
2024/02/12 11:30:19;;;;;;;9.60;3.22;;;10.50;80.50;;;;;;4995669;28;20065;-75
2024/02/12 11:32:47;;;;;;;7.10;2.78;;;10.50;80.60;;;;;;4991397;28;20619;-73
2024/02/12 11:35:14;;;;;;;8.45;2.70;;;10.70;79.40;;;;;;5010461;28;20026;-73
2024/02/12 11:37:45;;;;;;;9.13;2.67;;;10.80;79.10;;;;;;5010785;28;20096;-74
2024/02/12 11:40:16;;;;;;;11.65;2.90;;;10.50;79.40;;;;;;5014183;28;20038;-74
2024/02/12 11:42:50;;;;;;;11.20;3.00;;;10.50;79.90;;;;;;5014896;28;20104;-75
2024/02/12 11:45:18;;;;;;;;;;;10.40;79.70;;;;;;5011147;28;20137;-74
2024/02/12 11:47:48;;;;;;;8.25;2.97;;;10.30;80.90;;;;;;4999763;28;20290;-74
2024/02/12 11:50:24;;;;;;;14.68;3.05;;;10.40;81.60;;;;;;4993853;28;20033;-74
2024/02/12 11:52:56;;;;;;;11.63;2.65;;;10.60;80.40;;;;;;4997776;28;20033;-74
2024/02/12 11:55:22;;;;;;;11.00;3.33;;;10.70;80.10;;;;;;4991781;28;20034;-76
2024/02/12 11:57:49;;;;;;;11.05;2.80;;;10.80;80.50;;;;;;4992060;28;20367;-75
2024/02/12 12:00:21;;;;;;;12.63;3.13;;;11.10;80.60;;;;;;5001331;28;20033;-74
2024/02/12 12:02:50;;;;;;;9.40;2.78;;;11.40;79.30;;;;;;5023131;28;20050;-74
2024/02/12 12:05:26;;;;;;;9.73;2.70;;;11.60;77.20;;;;;;4998687;28;20041;-76
2024/02/12 12:07:52;;;;;;;11.43;3.55;;;11.60;77.20;;;;;;4990127;28;20033;-77
2024/02/12 12:10:26;;;;;;;9.02;2.72;;;12.00;77.50;;;;;;4987377;28;20049;-77
2024/02/12 12:12:53;;;;;;;10.90;2.47;;;12.00;76.60;;;;;;4990718;28;20482;-76
2024/02/12 12:15:20;;;;;;;7.10;2.72;;;11.90;76.70;;;;;;4992381;28;20026;-76
2024/02/12 12:17:48;;;;;;;9.52;2.00;;;12.10;77.10;;;;;;4994696;28;20039;-77
2024/02/12 12:20:17;;;;;;;8.25;1.75;;;11.90;74.10;;;;;;4990965;28;20061;-74
2024/02/12 12:22:44;;;;;;;10.13;2.33;;;11.70;73.70;;;;;;4995721;28;20030;-76
2024/02/12 12:25:11;;;;;;;9.38;2.42;;;11.60;73.40;;;;;;4993362;28;20025;-76
2024/02/12 12:27:38;;;;;;;7.75;2.17;;;11.30;74.80;;;;;;4986653;28;20018;-75
2024/02/12 12:30:16;;;;;;;7.75;2.10;;;11.10;75.60;;;;;;4983120;28;20568;-76
2024/02/12 12:32:43;;;;;;;9.88;2.10;;;11.10;75.80;;;;;;4969418;28;20022;-74
2024/02/12 12:35:09;;;;;;;9.43;2.33;;;11.10;75.00;;;;;;4985814;28;20042;-75
2024/02/12 12:37:36;;;;;;;6.80;1.85;;;11.20;74.30;;;;;;4986430;28;20030;-75
2024/02/12 12:40:08;;;;;;;10.43;2.92;;;11.10;74.10;;;;;;4986780;28;20030;-75
2024/02/12 12:42:38;;;;;;;6.03;2.10;;;11.20;75.50;;;;;;4990977;28;20026;-77
2024/02/12 12:45:07;;;;;;;8.05;2.22;;;11.40;75.70;;;;;;4983284;28;20437;-75
2024/02/12 12:47:37;;;;;;;11.48;3.33;;;11.40;75.60;;;;;;4994069;28;20306;-76
2024/02/12 12:50:08;;;;;;;15.07;3.20;;;11.60;76.30;;;;;;4991687;28;20034;-76
2024/02/12 12:52:35;;;;;;;7.60;2.53;;;11.90;76.20;;;;;;4996612;28;20022;-77
2024/02/12 12:55:04;;;;;;;11.05;2.85;;;12.00;74.40;;;;;;4997767;28;20132;-76
2024/02/12 12:57:30;;;;;;;10.88;3.70;;;12.10;74.90;;;;;;4996911;28;20378;-76
2024/02/12 12:59:59;;;;;;;7.32;2.22;;;12.10;75.00;;;;;;4995235;28;20871;-78